Latest Coastal Weather Observations for Dunalley

IDT60701

Issued at 7:35 pm EDT Friday 24 October 2014 (issued every 10 minutes, with the page automatically refreshed every 10 minutes)

About coastal observations | Map of coastal stations | Coastal observations for TAS | Marine services | Other Formats
Station Details ID: 094254 Name: DUNALLEY (STROUD POINT) Lat: -42.90 Lon: 147.79 Height: 12.43 m
Data from the previous 72 hours. | See also: Recent months at Dunalley
Date/Time
EDT
Temp

°C
Wind Pressure Rain
since 9am
mm
Weather Cloud Vis
km
Sea
Height
m
Swell
Dir
 
Speed
knots
Gust
knots
hPa Trend Height
m
Period
s
Dir
24/07:30pm 15.1 NE 17 23 1007.8 - 0.0 - - - - - - -
24/07:00pm 15.3 NE 18 24 1008.5 - 0.0 - - - - - - -
24/06:30pm 15.4 NE 19 24 1009.1 - 0.0 - - - - - - -
24/06:00pm 15.4 NE 19 23 1009.7 - 0.0 - - - - - - -
24/05:30pm 15.3 NE 12 17 1010.4 - 0.0 - - - - - - -
24/05:00pm 15.3 NE 12 17 1010.6 - 0.0 - - - - - - -
24/04:30pm 14.9 NE 14 18 1010.7 - 0.0 - - - - - - -
24/04:00pm 14.7 NE 16 21 1011.3 - 0.0 - - - - - - -
24/03:30pm 15.1 NE 18 25 1011.6 - 0.0 - - - - - - -
24/03:00pm 15.1 NE 16 19 1012.2 - 0.0 - - - - - - -
24/02:30pm 14.6 NE 18 23 1012.9 - 0.0 - - - - - - -
24/02:00pm 14.8 NE 18 23 1013.5 - 0.0 - - - - - - -
24/01:30pm 14.0 NE 18 22 1014.4 - 0.0 - - - - - - -
24/01:00pm 14.1 NE 19 24 1014.9 - 0.0 - - - - - - -
24/12:30pm 14.4 NE 18 23 1015.4 - 0.0 - - - - - - -
24/12:00pm 13.7 NE 18 22 1016.0 - 0.0 - - - - - - -
24/11:30am 13.6 NE 21 27 1016.5 - 0.0 - - - - - - -
24/11:00am 13.6 NNE 18 25 1017.1 - 0.0 - - - - - - -
24/10:30am 14.2 NE 18 26 1017.6 - 0.0 - - - - - - -
24/10:00am 13.6 NE 20 28 1017.9 - 0.0 - - - - - - -
24/09:51am 13.5 NE 18 28 1018.0 - 0.0 - - - - - - -
24/09:30am 13.4 NE 20 24 1018.2 - 0.0 - - - - - - -
24/09:00am 13.3 NE 20 26 1019.2 - 0.0 - - - - - - -
24/08:30am 13.3 NNE 19 26 1019.6 - 0.0 - - - - - - -
24/08:00am 12.9 NNE 17 25 1019.9 - 0.0 - - - - - - -
24/07:30am 12.5 NNE 19 24 1020.3 - 0.0 - - - - - - -
24/07:00am 12.1 NE 21 27 1020.2 - 0.0 - - - - - - -
24/06:30am 12.0 NNE 17 25 1020.7 - 0.0 - - - - - - -
24/06:00am 11.5 NNE 17 23 1020.8 - 0.0 - - - - - - -
24/05:30am 11.5 NNE 17 22 1021.0 - 0.0 - - - - - - -
24/05:00am 11.3 NE 18 22 1021.0 - 0.0 - - - - - - -
24/04:30am 11.1 NNE 15 20 1021.5 - 0.0 - - - - - - -
24/04:00am 10.5 N 7 12 1022.1 - 0.0 - - - - - - -
24/03:30am 10.8 N 8 12 1022.7 - 0.0 - - - - - - -
24/03:00am 10.8 NNE 9 14 1022.9 - 0.0 - - - - - - -
24/02:30am 10.4 NNE 8 12 1023.3 - 0.0 - - - - - - -
24/02:00am 9.8 N 5 9 1023.8 - 0.0 - - - - - - -
24/01:30am 10.9 N 6 10 1024.1 - 0.0 - - - - - - -
24/01:00am 10.4 NNE 8 12 1024.5 - 0.0 - - - - - - -
24/12:30am 10.7 NNE 7 12 1024.7 - 0.0 - - - - - - -
24/12:00am 10.4 NNE 9 13 1024.9 - 0.0 - - - - - - -
 
Date/Time
EDT
Temp

°C
Wind Pressure Rain
since 9am
mm
Weather Cloud Vis
km
Sea
Height
m
Swell
Dir
 
Speed
knots
Gust
knots
hPa Trend Height
m
Period
s
Dir
23/11:30pm 10.9 NNE 9 15 1025.5 - 0.0 - - - - - - -
23/11:00pm 10.5 NNE 11 15 1025.2 - 0.0 - - - - - - -
23/10:30pm 10.9 NE 16 22 1025.1 - 0.0 - - - - - - -
23/10:00pm 10.8 NNE 13 18 1025.6 - 0.0 - - - - - - -
23/09:30pm 11.0 NE 14 17 1026.0 - 0.0 - - - - - - -
23/09:00pm 11.2 NE 13 17 1026.2 - 0.0 - - - - - - -
23/08:30pm 11.3 ENE 12 14 1026.1 - 0.0 - - - - - - -
23/08:00pm 11.3 ENE 12 16 1026.0 - 0.0 - - - - - - -
23/07:30pm 11.4 E 12 15 1026.1 - 0.0 - - - - - - -
23/07:00pm 11.8 ENE 16 21 1025.7 - 0.0 - - - - - - -
23/06:30pm 12.3 ENE 14 18 1025.6 - 0.0 - - - - - - -
23/06:00pm 12.7 ENE 14 17 1025.7 - 0.0 - - - - - - -
23/05:30pm 13.1 ENE 14 17 1025.5 - 0.0 - - - - - - -
23/05:00pm 13.3 ENE 13 17 1025.3 - 0.0 - - - - - - -
23/04:30pm 13.9 ENE 13 17 1025.3 - 0.0 - - - - - - -
23/04:00pm 14.3 ENE 13 18 1025.2 - 0.0 - - - - - - -
23/03:30pm 14.0 NE 15 19 1025.1 - 0.0 - - - - - - -
23/03:00pm 14.8 NE 13 20 1025.1 - 0.0 - - - - - - -
23/02:30pm 15.0 NE 13 16 1025.5 - 0.0 - - - - - - -
23/02:00pm 15.1 NNE 11 15 1025.5 - 0.0 - - - - - - -
23/01:30pm 14.7 SSW 5 8 1025.6 - 0.0 - - - - - - -
23/01:00pm 13.7 SW 5 6 1025.6 - 0.0 - - - - - - -
23/12:30pm 13.7 SSW 5 7 1025.9 - 0.0 - - - - - - -
23/12:00pm 13.4 SSW 6 8 1026.2 - 0.0 - - - - - - -
23/11:30am 13.0 S 6 7 1026.3 - 0.0 - - - - - - -
23/11:00am 13.0 S 6 8 1026.5 - 0.0 - - - - - - -
23/10:30am 13.0 S 5 8 1026.5 - 0.0 - - - - - - -
23/10:00am 12.5 SSE 7 9 1026.4 - 0.0 - - - - - - -
23/09:30am 12.3 SSE 8 11 1026.4 - 0.0 - - - - - - -
23/09:00am 11.7 SSW 7 11 1026.2 - 0.0 - - - - - - -
23/08:30am 11.7 SSW 9 13 1025.8 - 0.0 - - - - - - -
23/08:00am 12.1 SSW 10 13 1025.6 - 0.0 - - - - - - -
23/07:30am 11.4 S 12 15 1025.0 - 0.0 - - - - - - -
23/07:00am 11.4 S 12 17 1024.3 - 0.0 - - - - - - -
23/06:30am 11.3 S 10 13 1023.9 - 0.0 - - - - - - -
23/06:00am 11.4 SSW 10 14 1023.4 - 0.0 - - - - - - -
23/05:30am 11.4 S 13 18 1022.8 - 0.0 - - - - - - -
23/05:00am 11.4 S 13 17 1022.6 - 0.0 - - - - - - -
23/04:30am 11.5 S 15 19 1022.2 - 0.0 - - - - - - -
23/04:00am 11.7 SSW 18 25 1022.0 - 0.0 - - - - - - -
23/03:30am 11.9 SSW 16 20 1021.8 - 0.0 - - - - - - -
23/03:00am 11.8 SSW 19 23 1021.7 - 0.0 - - - - - - -
23/02:30am 11.6 SSW 16 20 1021.8 - 0.0 - - - - - - -
23/02:00am 12.1 SSW 20 25 1021.2 - 0.0 - - - - - - -
23/01:30am 12.3 SSW 18 24 1021.3 - 0.0 - - - - - - -
23/01:00am 12.8 SSW 19 25 1020.9 - 0.0 - - - - - - -
23/12:30am 13.3 SSW 19 25 1020.5 - 0.0 - - - - - - -
23/12:00am 13.6 S 18 22 1020.1 - 0.0 - - - - - - -
 
Date/Time
EDT
Temp

°C
Wind Pressure Rain
since 9am
mm
Weather Cloud Vis
km
Sea
Height
m
Swell
Dir
 
Speed
knots
Gust
knots
hPa Trend Height
m
Period
s
Dir
22/11:30pm 13.7 SSW 20 25 1019.4 - 0.0 - - - - - - -
22/11:00pm 13.7 SSW 20 25 1019.3 - 0.0 - - - - - - -
22/10:30pm 13.9 S 16 21 1019.0 - 0.0 - - - - - - -
22/10:00pm 13.9 S 18 22 1018.7 - 0.0 - - - - - - -
22/09:30pm 14.2 S 9 15 1018.4 - 0.0 - - - - - - -
22/09:00pm 14.1 SSE 10 13 1017.9 - 0.0 - - - - - - -
22/08:30pm 14.3 SSE 13 16 1017.4 - 0.0 - - - - - - -
22/08:00pm 14.7 SSE 18 24 1016.4 - 0.0 - - - - - - -
22/07:30pm 15.3 S 19 23 1015.5 - 0.0 - - - - - - -
22/07:19pm 15.8 S 19 22 1015.4 - 0.0 - - - - - - -
22/07:00pm 16.9 NE 5 10 1014.8 - 0.0 - - - - - - -
22/06:30pm 17.0 NE 8 10 1013.7 - 0.0 - - - - - - -
22/06:00pm 17.1 NE 6 8 1014.3 - 0.0 - - - - - - -
22/05:30pm 17.9 NE 9 14 1013.7 - 0.0 - - - - - - -
22/05:00pm 17.9 NE 14 16 1013.3 - 0.0 - - - - - - -
22/04:30pm 18.0 NE 12 15 1013.8 - 0.0 - - - - - - -
22/04:00pm 19.4 NE 11 13 1014.0 - 0.0 - - - - - - -
22/03:30pm 19.8 ENE 12 14 1013.9 - 0.0 - - - - - - -
22/03:00pm 19.6 NE 14 18 1013.9 - 0.0 - - - - - - -
22/02:30pm 20.8 NE 14 17 1014.0 - 0.0 - - - - - - -
22/02:00pm 20.4 NE 15 18 1014.4 - 0.0 - - - - - - -
22/01:30pm 19.7 NE 15 18 1014.9 - 0.0 - - - - - - -
22/01:00pm 18.8 ENE 14 17 1015.4 - 0.0 - - - - - - -
22/12:30pm 18.5 NE 14 17 1015.8 - 0.0 - - - - - - -
22/12:00pm 18.1 NE 15 18 1016.5 - 0.0 - - - - - - -
22/11:30am 17.4 ENE 15 17 1017.1 - 0.0 - - - - - - -
22/11:00am 16.8 ENE 13 15 1017.7 - 0.0 - - - - - - -
22/10:30am 16.2 ENE 10 12 1018.3 - 0.0 - - - - - - -
22/10:00am 14.5 ENE 11 14 1018.7 - 0.0 - - - - - - -
22/09:30am 15.2 NE 11 14 1019.0 - 0.0 - - - - - - -
22/09:00am 15.7 NE 11 13 1019.2 - 0.0 - - - - - - -
22/08:30am 14.9 NNE 7 11 1019.8 - 0.0 - - - - - - -
22/08:00am 13.0 NNE 11 14 1020.0 - 0.0 - - - - - - -
22/07:30am 13.0 NNE 11 15 1020.2 - 0.0 - - - - - - -
22/07:00am 12.3 NE 11 17 1020.5 - 0.0 - - - - - - -
22/06:30am 11.7 NE 13 19 1020.8 - 0.0 - - - - - - -
22/06:00am 11.1 NNE 11 14 1021.1 - 0.0 - - - - - - -
22/05:30am 11.2 NE 14 18 1021.1 - 0.0 - - - - - - -
22/05:00am 10.9 ENE 11 14 1021.6 - 0.0 - - - - - - -
22/04:30am 10.9 ENE 12 15 1021.9 - 0.0 - - - - - - -
22/04:00am 11.2 NE 8 12 1022.5 - 0.0 - - - - - - -
22/03:30am 10.8 NE 9 12 1022.8 - 0.0 - - - - - - -
22/03:00am 10.9 NE 7 9 1023.3 - 0.0 - - - - - - -
22/02:30am 11.4 NNE 1 4 1024.0 - 0.0 - - - - - - -
22/02:00am 11.9 NNE 8 13 1024.1 - 0.0 - - - - - - -
22/01:30am 12.3 NE 9 17 1024.5 - 0.0 - - - - - - -
22/01:00am 12.2 NE 10 15 1024.8 - 0.0 - - - - - - -
22/12:30am 11.7 ENE 8 10 1025.2 - 0.0 - - - - - - -
22/12:00am 11.8 NE 10 12 1025.8 - 0.0 - - - - - - -
 
Date/Time
EDT
Temp

°C
Wind Pressure Rain
since 9am
mm
Weather Cloud Vis
km
Sea
Height
m
Swell
Dir
 
Speed
knots
Gust
knots
hPa Trend Height
m
Period
s
Dir
21/11:30pm 11.9 NE 12 14 1026.0 - 0.0 - - - - - - -
21/11:00pm 12.1 NE 11 15 1026.1 - 0.0 - - - - - - -
21/10:30pm 12.3 NE 10 14 1026.6 - 0.0 - - - - - - -
21/10:00pm 12.9 NE 15 20 1027.0 - 0.0 - - - - - - -
21/09:30pm 12.9 NE 17 22 1027.2 - 0.0 - - - - - - -
21/09:00pm 13.1 NE 18 24 1027.1 - 0.0 - - - - - - -
21/08:30pm 13.2 NE 19 24 1027.2 - 0.0 - - - - - - -
21/08:00pm 13.4 NE 22 26 1027.2 - 0.0 - - - - - - -

Other Formats:

Comma delimited format used in spreadsheet applications
http://www.bom.gov.au/fwo/IDT60701/IDT60701.94951.axf

JavaScript Object Notation format (JSON) in row-major order
http://www.bom.gov.au/fwo/IDT60701/IDT60701.94951.json